^^
Station Historical Data
Daily Summary for November 25, 2021 Units:  English    Metric   Both
Daily Weekly Monthly Yearly
  High: Low: Average:
Temperature: 43.3 °F 35.5 °F 40.2 °F
Dew Point: 39 °F 31.7 °F 36.9 °F
Humidity: 92% 82% 88%
Wind Speed: 7mph 1mph 3mph
Wind Gust: 14mph - -
Wind- - SW
Pressure: 29.94 in 29.86 in -
Precipitation: 0.04 in    
 
 
Tabular Data for November 25, 2021
Time Temperature Dew Point Pressure Wind Wind Speed Wind Gust Humidity Rainfall Rate (Hourly) solar
00:00 41.5 °F 36.4 °F 29.94 in NNE 2 mph 3 mph 82% 0.00 in 0 W/m2
00:05 41.5 °F 36.4 °F 29.94 in SSE 2 mph 3 mph 82% 0.00 in 0 W/m2
00:10 41.6 °F 36.5 °F 29.94 in WSW 3 mph 3 mph 82% 0.00 in 0 W/m2
00:15 41.5 °F 36.4 °F 29.93 in ENE 2 mph 3 mph 82% 0.00 in 0 W/m2
00:20 41.5 °F 36.7 °F 29.93 in NE 2 mph 2 mph 83% 0.00 in 0 W/m2
00:25 41.3 °F 36.5 °F 29.93 in NE 2 mph 2 mph 83% 0.00 in 0 W/m2
00:35 41.3 °F 36.5 °F 29.93 in North 2 mph 2 mph 83% 0.00 in 0 W/m2
00:40 41.4 °F 36.6 °F 29.93 in NNE 2 mph 3 mph 83% 0.00 in 0 W/m2
00:45 41.5 °F 36.7 °F 29.93 in NNW 2 mph 3 mph 83% 0.00 in 0 W/m2
00:50 41.5 °F 36.7 °F 29.93 in NNW 2 mph 3 mph 83% 0.00 in 0 W/m2
00:55 41.5 °F 36.7 °F 29.93 in NNE 2 mph 2 mph 83% 0.00 in 0 W/m2
01:00 41.3 °F 36.5 °F 29.93 in NE 2 mph 3 mph 83% 0.00 in 0 W/m2
01:05 41.5 °F 36.7 °F 29.93 in SE 2 mph 3 mph 83% 0.00 in 0 W/m2
01:10 41.5 °F 36.7 °F 29.92 in SSW 3 mph 4 mph 83% 0.00 in 0 W/m2
01:15 41.5 °F 36.7 °F 29.92 in North 3 mph 4 mph 83% 0.00 in 0 W/m2
01:20 41.5 °F 36.7 °F 29.93 in NNE 3 mph 4 mph 83% 0.00 in 0 W/m2
01:25 41.5 °F 36.7 °F 29.93 in NE 3 mph 4 mph 83% 0.00 in 0 W/m2
01:30 41.5 °F 36.7 °F 29.93 in NE 2 mph 2 mph 83% 0.00 in 0 W/m2
01:35 41.4 °F 36.6 °F 29.93 in NE 2 mph 2 mph 83% 0.00 in 0 W/m2
01:45 41.4 °F 36.9 °F 29.92 in SW 2 mph 2 mph 84% 0.00 in 0 W/m2
01:50 41.4 °F 36.6 °F 29.92 in NE 2 mph 2 mph 83% 0.00 in 0 W/m2
01:55 41.5 °F 36.7 °F 29.92 in NNE 2 mph 3 mph 83% 0.00 in 0 W/m2
02:00 41.4 °F 36.9 °F 29.92 in SSW 2 mph 3 mph 84% 0.00 in 0 W/m2
02:05 41.5 °F 37 °F 29.92 in North 2 mph 3 mph 84% 0.00 in 0 W/m2
02:10 41.4 °F 36.9 °F 29.92 in ENE 2 mph 2 mph 84% 0.00 in 0 W/m2
02:15 41.4 °F 36.9 °F 29.92 in NNW 2 mph 2 mph 84% 0.00 in 0 W/m2
02:20 41.5 °F 37.3 °F 29.92 in South 2 mph 2 mph 85% 0.00 in 0 W/m2
02:25 41.7 °F 37.5 °F 29.93 in NNE 2 mph 2 mph 85% 0.00 in 0 W/m2
02:30 42.1 °F 37.6 °F 29.92 in SSW 3 mph 5 mph 84% 0.00 in 0 W/m2
02:35 42.6 °F 38.1 °F 29.92 in SW 3 mph 5 mph 84% 0.00 in 0 W/m2
02:40 43.1 °F 38.3 °F 29.93 in SE 3 mph 3 mph 83% 0.00 in 0 W/m2
02:45 43.2 °F 38.4 °F 29.93 in South 4 mph 7 mph 83% 0.00 in 0 W/m2
02:50 43.3 °F 38.5 °F 29.93 in SSW 5 mph 8 mph 83% 0.00 in 0 W/m2
02:55 43.1 °F 38.6 °F 29.93 in South 5 mph 8 mph 84% 0.00 in 0 W/m2
03:00 43 °F 38.5 °F 29.93 in WSW 3 mph 3 mph 84% 0.00 in 0 W/m2
03:05 42.7 °F 38.5 °F 29.93 in WSW 3 mph 3 mph 85% 0.00 in 0 W/m2
03:10 42.4 °F 38.5 °F 29.92 in NNW 3 mph 3 mph 86% 0.00 in 0 W/m2
03:15 42.1 °F 38.2 °F 29.92 in SE 2 mph 4 mph 86% 0.00 in 0 W/m2
03:20 41.7 °F 38.1 °F 29.92 in NE 2 mph 2 mph 87% 0.00 in 0 W/m2
03:25 41.3 °F 38 °F 29.92 in SSE 2 mph 2 mph 88% 0.00 in 0 W/m2
03:30 40.8 °F 37.5 °F 29.92 in SW 2 mph 2 mph 88% 0.00 in 0 W/m2
03:35 40.6 °F 37.3 °F 29.92 in North 2 mph 2 mph 88% 0.00 in 0 W/m2
03:40 40.4 °F 37.1 °F 29.92 in North 2 mph 2 mph 88% 0.00 in 0 W/m2
03:45 40.4 °F 37.1 °F 29.92 in NNE 2 mph 2 mph 88% 0.00 in 0 W/m2
03:50 40.3 °F 37 °F 29.92 in SW 2 mph 2 mph 88% 0.00 in 0 W/m2
04:00 40.4 °F 37.1 °F 29.92 in NE 2 mph 2 mph 88% 0.00 in 0 W/m2
04:05 40.4 °F 37.4 °F 29.92 in SSW 2 mph 2 mph 89% 0.00 in 0 W/m2
04:10 40.3 °F 37.3 °F 29.92 in NNE 2 mph 2 mph 89% 0.00 in 0 W/m2
04:15 40.2 °F 37.2 °F 29.92 in SSW 2 mph 4 mph 89% 0.00 in 0 W/m2
04:20 40.3 °F 37.3 °F 29.92 in South 3 mph 4 mph 89% 0.00 in 0 W/m2
04:25 40.2 °F 37.2 °F 29.92 in SSE 3 mph 4 mph 89% 0.00 in 0 W/m2
04:30 40.2 °F 37.2 °F 29.92 in SE 3 mph 3 mph 89% 0.00 in 0 W/m2
04:35 40.2 °F 37.2 °F 29.92 in ESE 3 mph 3 mph 89% 0.00 in 0 W/m2
04:40 40.2 °F 37.2 °F 29.92 in SSE 3 mph 3 mph 89% 0.00 in 0 W/m2
04:45 40.3 °F 37.3 °F 29.92 in SE 3 mph 3 mph 89% 0.00 in 0 W/m2
04:50 40.3 °F 37.3 °F 29.92 in South 3 mph 4 mph 89% 0.00 in 0 W/m2
04:55 40.3 °F 37.3 °F 29.92 in SSW 3 mph 4 mph 89% 0.00 in 0 W/m2
05:00 40.4 °F 37.4 °F 29.92 in South 3 mph 3 mph 89% 0.00 in 0 W/m2
05:05 40.5 °F 37.8 °F 29.92 in South 3 mph 4 mph 90% 0.00 in 0 W/m2
05:10 40.5 °F 37.8 °F 29.92 in SSW 3 mph 4 mph 90% 0.00 in 0 W/m2
05:15 40.5 °F 37.8 °F 29.93 in NE 3 mph 4 mph 90% 0.00 in 0 W/m2
05:20 40.6 °F 37.9 °F 29.93 in South 3 mph 4 mph 90% 0.00 in 0 W/m2
05:25 40.8 °F 38.1 °F 29.93 in West 3 mph 4 mph 90% 0.00 in 0 W/m2
05:30 40.7 °F 38 °F 29.93 in ENE 2 mph 2 mph 90% 0.00 in 0 W/m2
05:35 40.5 °F 37.8 °F 29.92 in East 2 mph 2 mph 90% 0.00 in 0 W/m2
05:40 40.4 °F 37.7 °F 29.92 in NE 2 mph 2 mph 90% 0.00 in 0 W/m2
05:45 40.2 °F 37.5 °F 29.92 in NE 2 mph 2 mph 90% 0.00 in 0 W/m2
05:50 40.2 °F 37.5 °F 29.92 in South 2 mph 2 mph 90% 0.00 in 0 W/m2
05:55 40.1 °F 37.4 °F 29.92 in NW 1 mph 2 mph 90% 0.00 in 0 W/m2
06:00 40 °F 37.3 °F 29.92 in North 1 mph 1 mph 90% 0.00 in 0 W/m2
06:05 40 °F 37.3 °F 29.92 in NW 1 mph 2 mph 90% 0.00 in 0 W/m2
06:10 39.9 °F 37.5 °F 29.92 in SSW 1 mph 1 mph 91% 0.00 in 0 W/m2
06:15 39.8 °F 37.4 °F 29.92 in NNE 1 mph 1 mph 91% 0.00 in 0 W/m2
06:20 39.7 °F 37 °F 29.91 in NE 1 mph 3 mph 90% 0.00 in 0 W/m2
06:25 39.7 °F 37.3 °F 29.92 in North 1 mph 3 mph 91% 0.00 in 0 W/m2
06:30 39.6 °F 37.2 °F 29.92 in NE 1 mph 1 mph 91% 0.00 in 0 W/m2
06:35 39.6 °F 37.2 °F 29.92 in South 1 mph 1 mph 91% 0.00 in 0 W/m2
06:40 39.6 °F 37.2 °F 29.92 in WNW 1 mph 2 mph 91% 0.00 in 0 W/m2
06:50 39.7 °F 37.3 °F 29.92 in ENE 1 mph 1 mph 91% 0.00 in 0 W/m2
06:55 39.7 °F 37.3 °F 29.91 in SSE 1 mph 1 mph 91% 0.00 in 0 W/m2
07:01 39.7 °F 37.3 °F 29.91 in SW 1 mph 1 mph 91% 0.00 in 0 W/m2
07:05 39.7 °F 37.3 °F 29.91 in NW 1 mph 1 mph 91% 0.00 in 0 W/m2
07:10 39.8 °F 37.4 °F 29.91 in WNW 1 mph 2 mph 91% 0.00 in 0 W/m2
07:15 39.7 °F 37.3 °F 29.91 in WSW 2 mph 2 mph 91% 0.00 in 0 W/m2
07:20 39.8 °F 37.4 °F 29.91 in SSW 2 mph 2 mph 91% 0.00 in 0 W/m2
07:25 39.9 °F 37.8 °F 29.91 in NW 2 mph 3 mph 92% 0.00 in 0 W/m2
07:30 40 °F 37.9 °F 29.92 in WSW 2 mph 4 mph 92% 0.00 in 0 W/m2
07:35 40.2 °F 38.1 °F 29.92 in WSW 3 mph 4 mph 92% 0.00 in 0 W/m2
07:40 40.3 °F 38.2 °F 29.92 in West 3 mph 4 mph 92% 0.00 in 0 W/m2
07:45 40.3 °F 38.2 °F 29.91 in SW 3 mph 4 mph 92% 0.00 in 0 W/m2
07:55 40.4 °F 38.3 °F 29.92 in WSW 3 mph 5 mph 92% 0.00 in 0 W/m2
08:00 40.4 °F 38.3 °F 29.92 in West 3 mph 3 mph 92% 0.00 in 0 W/m2
08:05 40.4 °F 38.3 °F 29.92 in WSW 2 mph 4 mph 92% 0.00 in 0 W/m2
08:15 40.4 °F 38.3 °F 29.92 in WSW 3 mph 4 mph 92% 0.00 in 7 W/m2
08:20 40.4 °F 38.3 °F 29.92 in West 3 mph 4 mph 92% 0.00 in 11 W/m2
08:25 40.5 °F 38.4 °F 29.92 in WSW 2 mph 4 mph 92% 0.00 in 9 W/m2
08:31 40.6 °F 38.5 °F 29.92 in NW 2 mph 4 mph 92% 0.00 in 12 W/m2
08:35 40.6 °F 38.5 °F 29.93 in NNW 2 mph 2 mph 92% 0.00 in 16 W/m2
08:40 40.7 °F 38.6 °F 29.92 in WNW 2 mph 4 mph 92% 0.00 in 12 W/m2
08:45 40.8 °F 38.7 °F 29.92 in NW 2 mph 2 mph 92% 0.00 in 16 W/m2
08:50 40.9 °F 38.8 °F 29.92 in NW 2 mph 2 mph 92% 0.00 in 14 W/m2
08:55 41 °F 38.9 °F 29.92 in WNW 3 mph 3 mph 92% 0.00 in 14 W/m2
09:05 41.1 °F 39 °F 29.92 in NW 3 mph 3 mph 92% 0.00 in 25 W/m2
09:10 41 °F 38.9 °F 29.92 in NNW 3 mph 3 mph 92% 0.00 in 35 W/m2
09:15 40.9 °F 38.8 °F 29.92 in NNW 3 mph 3 mph 92% 0.00 in 33 W/m2
09:20 40.9 °F 38.8 °F 29.92 in North 2 mph 3 mph 92% 0.00 in 44 W/m2
09:26 40.9 °F 38.8 °F 29.92 in NW 2 mph 2 mph 92% 0.00 in 62 W/m2
09:30 40.8 °F 38.7 °F 29.92 in NNW 2 mph 2 mph 92% 0.00 in 58 W/m2
09:40 40.7 °F 38.6 °F 29.92 in NNW 1 mph 2 mph 92% 0.00 in 35 W/m2
09:46 40.7 °F 38.6 °F 29.92 in NNW 1 mph 2 mph 92% 0.00 in 33 W/m2
09:50 40.7 °F 38.6 °F 29.92 in North 2 mph 2 mph 92% 0.00 in 51 W/m2
09:55 40.7 °F 38.6 °F 29.92 in NNW 2 mph 2 mph 92% 0.00 in 47 W/m2
10:00 40.7 °F 38.6 °F 29.92 in West 1 mph 1 mph 92% 0.00 in 58 W/m2
10:05 40.6 °F 38.5 °F 29.91 in East 1 mph 1 mph 92% 0.00 in 77 W/m2
10:15 40.6 °F 38.5 °F 29.91 in North 2 mph 2 mph 92% 0.00 in 53 W/m2
10:20 40.6 °F 38.5 °F 29.92 in NE 2 mph 2 mph 92% 0.00 in 44 W/m2
10:25 40.6 °F 38.5 °F 29.92 in NNW 1 mph 2 mph 92% 0.00 in 39 W/m2
10:35 40.7 °F 38.6 °F 29.92 in NNW 1 mph 2 mph 92% 0.00 in 28 W/m2
10:45 40.7 °F 38.6 °F 29.91 in NNW 1 mph 2 mph 92% 0.00 in 81 W/m2
10:50 40.7 °F 38.6 °F 29.91 in NNW 1 mph 3 mph 92% 0.00 in 86 W/m2
10:55 40.7 °F 38.6 °F 29.91 in NW 2 mph 2 mph 92% 0.00 in 84 W/m2
11:00 40.8 °F 38.7 °F 29.91 in NE 1 mph 1 mph 92% 0.00 in 84 W/m2
11:10 40.9 °F 38.8 °F 29.91 in NNW 1 mph 1 mph 92% 0.00 in 69 W/m2
11:15 41 °F 38.9 °F 29.90 in NW 2 mph 2 mph 92% 0.00 in 60 W/m2
11:20 41 °F 38.9 °F 29.90 in NW 2 mph 2 mph 92% 0.00 in 58 W/m2
11:25 41 °F 38.9 °F 29.90 in NNW 2 mph 2 mph 92% 0.00 in 49 W/m2
11:30 40.9 °F 38.8 °F 29.90 in North 2 mph 2 mph 92% 0.00 in 54 W/m2
11:35 40.8 °F 38.4 °F 29.90 in NW 3 mph 3 mph 91% 0.00 in 60 W/m2
11:40 40.8 °F 38.4 °F 29.90 in NW 3 mph 3 mph 91% 0.00 in 83 W/m2
11:45 40.7 °F 38.3 °F 29.89 in WNW 2 mph 3 mph 91% 0.00 in 114 W/m2
11:55 40.9 °F 38.5 °F 29.89 in North 2 mph 2 mph 91% 0.00 in 109 W/m2
12:00 40.9 °F 38.5 °F 29.89 in NW 1 mph 1 mph 91% 0.00 in 98 W/m2
12:10 40.9 °F 38.5 °F 29.89 in North 2 mph 3 mph 91% 0.00 in 49 W/m2
12:15 40.9 °F 38.2 °F 29.89 in NNW 2 mph 3 mph 90% 0.00 in 47 W/m2
12:25 40.8 °F 38.1 °F 29.89 in WNW 2 mph 2 mph 90% 0.00 in 72 W/m2
12:30 40.8 °F 38.1 °F 29.89 in NW 2 mph 2 mph 90% 0.00 in 77 W/m2
12:40 40.7 °F 37.7 °F 29.89 in NW 2 mph 5 mph 89% 0.00 in 60 W/m2
12:45 40.7 °F 37.7 °F 29.89 in NW 2 mph 5 mph 89% 0.00 in 60 W/m2
12:50 40.7 °F 37.7 °F 29.89 in NW 2 mph 6 mph 89% 0.00 in 58 W/m2
12:55 40.7 °F 37.7 °F 29.89 in WNW 2 mph 6 mph 89% 0.00 in 63 W/m2
13:00 40.7 °F 37.7 °F 29.89 in WNW 3 mph 3 mph 89% 0.00 in 46 W/m2
13:05 40.6 °F 37.6 °F 29.89 in WNW 3 mph 3 mph 89% 0.00 in 44 W/m2
13:10 40.6 °F 37.3 °F 29.89 in North 3 mph 3 mph 88% 0.00 in 44 W/m2
13:15 40.6 °F 37.3 °F 29.88 in NW 3 mph 4 mph 88% 0.00 in 51 W/m2
13:20 40.7 °F 37.4 °F 29.88 in WNW 4 mph 4 mph 88% 0.00 in 47 W/m2
13:25 40.6 °F 37.3 °F 29.88 in NW 4 mph 4 mph 88% 0.00 in 51 W/m2
13:30 40.5 °F 37.2 °F 29.88 in NW 4 mph 4 mph 88% 0.00 in 49 W/m2
13:35 40.4 °F 37.1 °F 29.87 in North 4 mph 5 mph 88% 0.00 in 56 W/m2
13:40 40.4 °F 37.1 °F 29.87 in NW 4 mph 4 mph 88% 0.00 in 65 W/m2
13:45 40.3 °F 37 °F 29.87 in NW 4 mph 4 mph 88% 0.00 in 53 W/m2
13:51 40.3 °F 37 °F 29.87 in NW 3 mph 4 mph 88% 0.00 in 67 W/m2
13:56 40.3 °F 37 °F 29.87 in NNW 3 mph 4 mph 88% 0.00 in 63 W/m2
14:00 40.3 °F 37 °F 29.87 in North 3 mph 3 mph 88% 0.00 in 74 W/m2
14:05 40.3 °F 37 °F 29.87 in NNW 3 mph 3 mph 88% 0.00 in 62 W/m2
14:15 40.4 °F 37.1 °F 29.87 in NNW 3 mph 3 mph 88% 0.00 in 56 W/m2
14:20 40.4 °F 37.1 °F 29.87 in West 3 mph 3 mph 88% 0.00 in 56 W/m2
14:25 40.5 °F 37.2 °F 29.87 in NW 3 mph 3 mph 88% 0.00 in 60 W/m2
14:30 40.5 °F 37.2 °F 29.87 in WNW 3 mph 3 mph 88% 0.00 in 23 W/m2
14:35 40.5 °F 37.2 °F 29.87 in WSW 3 mph 3 mph 88% 0.00 in 18 W/m2
14:45 40.2 °F 36.6 °F 29.86 in NW 5 mph 6 mph 87% 0.00 in 35 W/m2
14:55 39.9 °F 36.6 °F 29.86 in NW 4 mph 4 mph 88% 0.00 in 63 W/m2
15:00 39.9 °F 36.6 °F 29.86 in WNW 4 mph 4 mph 88% 0.00 in 63 W/m2
15:05 39.9 °F 36.6 °F 29.86 in NW 4 mph 4 mph 88% 0.00 in 53 W/m2
15:10 40 °F 36.7 °F 29.86 in NW 4 mph 4 mph 88% 0.00 in 60 W/m2
15:15 40 °F 36.7 °F 29.86 in WNW 4 mph 4 mph 88% 0.00 in 62 W/m2
15:20 40 °F 36.7 °F 29.87 in SW 4 mph 5 mph 88% 0.00 in 74 W/m2
15:25 40 °F 36.7 °F 29.87 in West 3 mph 5 mph 88% 0.00 in 51 W/m2
15:31 39.9 °F 36.6 °F 29.87 in NW 4 mph 4 mph 88% 0.00 in 28 W/m2
15:35 39.8 °F 36.5 °F 29.88 in WSW 5 mph 5 mph 88% 0.00 in 28 W/m2
15:40 39.7 °F 36.4 °F 29.88 in WNW 4 mph 5 mph 88% 0.00 in 23 W/m2
15:45 39.5 °F 36 °F 29.88 in NNW 4 mph 4 mph 87% 0.00 in 12 W/m2
15:50 39.4 °F 35.9 °F 29.88 in NW 5 mph 6 mph 87% 0.00 in 14 W/m2
15:55 39.3 °F 35.8 °F 29.88 in NW 4 mph 4 mph 87% 0.00 in 14 W/m2
16:00 39.2 °F 35.7 °F 29.88 in NNW 4 mph 4 mph 87% 0.00 in 18 W/m2
16:05 39.1 °F 35.8 °F 29.88 in West 4 mph 4 mph 88% 0.00 in 25 W/m2
16:11 39.1 °F 35.8 °F 29.88 in West 5 mph 6 mph 88% 0.00 in 11 W/m2
16:15 39 °F 35.7 °F 29.88 in WNW 4 mph 6 mph 88% 0.00 in 11 W/m2
16:20 38.8 °F 35.3 °F 29.88 in NW 5 mph 6 mph 87% 0.00 in 14 W/m2
16:25 38.7 °F 35.2 °F 29.88 in NW 5 mph 7 mph 87% 0.00 in 21 W/m2
16:30 38.6 °F 35.1 °F 29.88 in NW 4 mph 7 mph 87% 0.00 in 21 W/m2
16:35 38.5 °F 35 °F 29.88 in WNW 4 mph 4 mph 87% 0.00 in 12 W/m2
16:45 38.3 °F 34.8 °F 29.89 in NE 5 mph 5 mph 87% 0.00 in 5 W/m2
16:50 38.3 °F 34.8 °F 29.88 in NW 5 mph 5 mph 87% 0.00 in 5 W/m2
16:55 38.2 °F 34.7 °F 29.89 in North 5 mph 5 mph 87% 0.00 in 0 W/m2
17:00 38.2 °F 34.7 °F 29.89 in NNW 5 mph 5 mph 87% 0.00 in 0 W/m2
17:05 38.1 °F 34.6 °F 29.89 in NW 5 mph 5 mph 87% 0.00 in 0 W/m2
17:15 38 °F 34.5 °F 29.89 in NW 5 mph 7 mph 87% 0.00 in 0 W/m2
17:20 37.9 °F 34.1 °F 29.89 in NW 6 mph 7 mph 86% 0.00 in 0 W/m2
17:25 37.8 °F 34 °F 29.90 in NW 6 mph 11 mph 86% 0.00 in 0 W/m2
17:30 37.7 °F 33.9 °F 29.90 in NNW 6 mph 11 mph 86% 0.00 in 0 W/m2
17:35 37.7 °F 33.9 °F 29.90 in WNW 6 mph 6 mph 86% 0.00 in 0 W/m2
17:40 37.5 °F 33.7 °F 29.90 in NW 6 mph 6 mph 86% 0.00 in 0 W/m2
17:50 37.4 °F 33.6 °F 29.90 in NW 5 mph 5 mph 86% 0.00 in 0 W/m2
17:55 37.3 °F 33.5 °F 29.90 in NW 6 mph 6 mph 86% 0.00 in 0 W/m2
18:00 37.1 °F 33.3 °F 29.90 in NNW 6 mph 6 mph 86% 0.00 in 0 W/m2
18:05 37.1 °F 33.3 °F 29.90 in WSW 6 mph 6 mph 86% 0.00 in 0 W/m2
18:10 37 °F 33.2 °F 29.91 in NW 6 mph 9 mph 86% 0.00 in 0 W/m2
18:15 36.8 °F 33 °F 29.91 in North 6 mph 10 mph 86% 0.00 in 0 W/m2
18:20 36.6 °F 32.8 °F 29.90 in NNW 7 mph 7 mph 86% 0.00 in 0 W/m2
18:25 36.6 °F 32.8 °F 29.90 in NNW 7 mph 8 mph 86% 0.00 in 0 W/m2
18:30 36.6 °F 32.8 °F 29.91 in NNW 7 mph 7 mph 86% 0.00 in 0 W/m2
18:35 36.4 °F 32.3 °F 29.91 in WNW 6 mph 7 mph 85% 0.00 in 0 W/m2
18:40 36.2 °F 32.1 °F 29.91 in WNW 6 mph 8 mph 85% 0.00 in 0 W/m2
18:45 36.1 °F 32.3 °F 29.91 in WNW 6 mph 11 mph 86% 0.00 in 0 W/m2
18:55 35.8 °F 32 °F 29.91 in NW 7 mph 14 mph 86% 0.00 in 0 W/m2
19:00 35.8 °F 32 °F 29.91 in WNW 7 mph 7 mph 86% 0.00 in 0 W/m2
19:05 35.7 °F 31.9 °F 29.91 in NW 6 mph 7 mph 86% 0.00 in 0 W/m2
19:10 35.6 °F 32.1 °F 29.91 in NW 5 mph 5 mph 87% 0.00 in 0 W/m2
19:15 35.5 °F 31.7 °F 29.91 in WNW 6 mph 9 mph 86% 0.00 in 0 W/m2
Sand Point, Michigan, USA
Compliments of Weather Underground - 2 mb